Time;durP1;ratioP1;P1;durP2;ratioP2;P2;SDS_P1;SDS_P2;PMS_P1;PMS_P2;Temp;Humidity;BMP_temperature;BMP_pressure;BME280_temperature;BME280_humidity;BME280_pressure;Samples;Min_cycle;Max_cycle;Signal;HPM_P1;HPM_P2
2021/09/08 00:01:50;0.00;0.00;0.62;0.00;0.00;0.62;8.07;7.10;;;27.60;31.80;;;;;;2257125;61;20406;-59
2021/09/08 00:04:34;0.00;0.00;0.62;0.00;0.00;0.62;8.93;7.20;;;27.60;31.80;;;;;;2257190;61;20698;-59
2021/09/08 00:07:20;0.00;0.00;0.62;0.00;0.00;0.62;10.03;7.73;;;27.60;31.80;;;;;;2256694;61;20402;-58
2021/09/08 00:10:07;0.00;0.00;0.62;0.00;0.00;0.62;7.60;6.80;;;27.60;31.80;;;;;;2257241;61;20414;-59
2021/09/08 00:12:52;0.00;0.00;0.62;0.00;0.00;0.62;7.50;6.70;;;27.60;31.80;;;;;;2257466;61;20751;-58
2021/09/08 00:15:37;0.00;0.00;0.62;0.00;0.00;0.62;7.73;6.97;;;27.50;31.70;;;;;;2257571;61;20423;-59
2021/09/08 00:18:22;0.00;0.00;0.62;0.00;0.00;0.62;8.10;7.30;;;27.50;31.70;;;;;;2258038;61;20626;-61
2021/09/08 00:21:07;0.00;0.00;0.62;0.00;0.00;0.62;8.37;7.47;;;27.50;31.80;;;;;;2257769;61;20576;-60
2021/09/08 00:23:53;0.00;0.00;0.62;0.00;0.00;0.62;7.50;6.47;;;27.50;31.70;;;;;;2257927;61;20417;-61
2021/09/08 00:26:38;0.00;0.00;0.62;0.00;0.00;0.62;8.83;7.00;;;27.50;31.70;;;;;;2257924;61;20382;-56
2021/09/08 00:29:22;0.00;0.00;0.62;0.00;0.00;0.62;7.90;7.13;;;27.50;31.80;;;;;;2257402;61;20370;-57
2021/09/08 00:32:07;0.00;0.00;0.62;0.00;0.00;0.62;6.90;6.30;;;27.50;31.70;;;;;;2258066;61;20355;-60
2021/09/08 00:34:54;0.00;0.00;0.62;0.00;0.00;0.62;6.80;6.10;;;27.50;31.70;;;;;;2258089;61;20486;-60
2021/09/08 00:37:40;0.00;0.00;0.62;0.00;0.00;0.62;7.10;6.37;;;27.40;31.70;;;;;;2257373;61;20625;-62
2021/09/08 00:40:27;0.00;0.00;0.62;0.00;0.00;0.62;6.70;6.00;;;27.40;31.70;;;;;;2257805;61;20390;-60
2021/09/08 00:43:13;0.00;0.00;0.62;0.00;0.00;0.62;6.77;6.00;;;27.40;31.70;;;;;;2257578;61;20765;-58
2021/09/08 00:45:57;0.00;0.00;0.62;0.00;0.00;0.62;6.77;6.00;;;27.40;31.70;;;;;;2257745;61;20475;-61
2021/09/08 00:48:43;0.00;0.00;0.62;0.00;0.00;0.62;6.07;5.53;;;27.30;31.60;;;;;;2257661;61;20394;-59
2021/09/08 00:51:28;0.00;0.00;0.62;0.00;0.00;0.62;6.20;5.60;;;27.30;31.60;;;;;;2257209;61;20354;-60
2021/09/08 00:54:20;0.00;0.00;0.62;0.00;0.00;0.62;6.57;5.50;;;27.30;31.60;;;;;;2258091;61;20622;-62
2021/09/08 00:57:08;0.00;0.00;0.62;0.00;0.00;0.62;6.50;5.90;;;27.20;31.50;;;;;;2257836;61;20358;-57
2021/09/08 00:59:52;0.00;0.00;0.62;0.00;0.00;0.62;6.50;5.90;;;27.20;31.50;;;;;;2257305;61;20347;-59
2021/09/08 01:02:40;0.00;0.00;0.62;0.00;0.00;0.62;6.30;5.63;;;27.20;31.60;;;;;;2257916;61;20511;-58
2021/09/08 01:05:26;0.00;0.00;0.62;0.00;0.00;0.62;6.43;5.73;;;27.20;31.70;;;;;;2257354;61;20755;-61
2021/09/08 01:08:10;0.00;0.00;0.62;0.00;0.00;0.62;6.20;5.60;;;27.20;31.70;;;;;;2257753;61;20383;-61
2021/09/08 01:10:56;0.00;0.00;0.62;0.00;0.00;0.62;5.97;5.40;;;27.20;31.70;;;;;;2257664;61;20362;-58
2021/09/08 01:13:43;0.00;0.00;0.62;0.00;0.00;0.62;6.93;6.27;;;27.20;31.70;;;;;;2257154;61;20375;-60
2021/09/08 01:16:28;0.00;0.00;0.62;0.00;0.00;0.62;6.77;5.47;;;27.20;31.70;;;;;;2258025;61;20598;-60
2021/09/08 01:19:12;0.00;0.00;0.62;0.00;0.00;0.62;5.70;5.20;;;27.20;31.80;;;;;;2257891;61;20383;-59
2021/09/08 01:21:57;0.00;0.00;0.62;0.00;0.00;0.62;6.83;6.23;;;27.20;31.80;;;;;;2257289;61;20366;-59
2021/09/08 01:24:43;0.00;0.00;0.62;0.00;0.00;0.62;5.90;5.30;;;27.20;31.90;;;;;;2257651;61;20438;-58
2021/09/08 01:27:28;0.00;0.00;0.62;0.00;0.00;0.62;7.53;5.33;;;27.20;32.00;;;;;;2257539;61;20375;-59
2021/09/08 01:30:16;0.00;0.00;0.62;0.00;0.00;0.62;6.10;5.50;;;27.10;31.90;;;;;;2257517;61;20355;-59
2021/09/08 01:33:01;0.00;0.00;0.62;0.00;0.00;0.62;6.43;5.83;;;27.20;32.10;;;;;;2257124;61;20628;-61
2021/09/08 01:35:47;0.00;0.00;0.62;0.00;0.00;0.62;6.37;5.77;;;27.20;32.10;;;;;;2257546;61;20354;-59
2021/09/08 01:38:32;0.00;0.00;0.62;0.00;0.00;0.62;5.90;5.40;;;27.10;32.10;;;;;;2261855;61;20370;-60
2021/09/08 01:41:17;0.00;0.00;0.62;0.00;0.00;0.62;5.53;5.00;;;27.10;32.10;;;;;;2261735;61;20482;-59
2021/09/08 01:44:02;0.00;0.00;0.62;0.00;0.00;0.62;6.67;5.97;;;27.10;32.10;;;;;;2261161;61;20390;-60
2021/09/08 01:46:50;0.00;0.00;0.62;0.00;0.00;0.62;6.20;5.60;;;27.10;32.10;;;;;;2261626;61;20390;-60
2021/09/08 01:49:35;0.00;0.00;0.62;0.00;0.00;0.62;6.47;5.73;;;27.10;32.10;;;;;;2261444;61;20393;-59
2021/09/08 01:52:19;0.00;0.00;0.62;0.00;0.00;0.62;5.90;5.30;;;27.10;32.10;;;;;;2261557;61;20370;-59
2021/09/08 01:55:05;0.00;0.00;0.62;0.00;0.00;0.62;6.10;5.57;;;27.10;32.10;;;;;;2261599;61;20362;-60
2021/09/08 01:57:51;0.00;0.00;0.62;0.00;0.00;0.62;5.50;4.97;;;27.10;32.10;;;;;;2261449;61;20572;-59
2021/09/08 02:00:37;0.00;0.00;0.62;0.00;0.00;0.62;6.90;6.30;;;27.20;32.10;;;;;;2261842;61;20581;-60
2021/09/08 02:03:22;0.00;0.00;0.62;0.00;0.00;0.62;6.60;6.00;;;27.10;32.00;;;;;;2261620;61;20378;-59
2021/09/08 02:06:19;0.00;0.00;0.62;0.00;0.00;0.62;5.53;5.03;;;27.10;32.00;;;;;;2261183;61;20734;-58
2021/09/08 02:09:03;0.00;0.00;0.62;0.00;0.00;0.62;5.73;5.13;;;27.10;32.10;;;;;;2261558;61;20390;-61
2021/09/08 02:11:48;0.00;0.00;0.62;0.00;0.00;0.62;6.03;5.43;;;27.00;32.10;;;;;;2261386;61;20366;-61
2021/09/08 02:14:35;0.00;0.00;0.62;0.00;0.00;0.62;6.03;5.50;;;27.00;32.20;;;;;;2261479;61;20373;-59
2021/09/08 02:17:19;0.00;0.00;0.62;0.00;0.00;0.62;7.30;5.93;;;27.00;32.20;;;;;;2261484;61;20369;-60
2021/09/08 02:20:09;0.00;0.00;0.62;0.00;0.00;0.62;5.90;5.37;;;27.00;32.20;;;;;;2261420;61;20382;-59
2021/09/08 02:22:53;0.00;0.00;0.62;0.00;0.00;0.62;6.23;5.63;;;27.00;32.20;;;;;;2261763;61;20613;-58
2021/09/08 02:25:38;0.00;0.00;0.62;0.00;0.00;0.62;5.93;5.33;;;27.00;32.20;;;;;;2261675;61;20402;-60
2021/09/08 02:28:22;0.00;0.00;0.62;0.00;0.00;0.62;5.00;4.50;;;27.10;32.30;;;;;;2261159;61;20385;-59
2021/09/08 02:31:09;0.00;0.00;0.62;0.00;0.00;0.62;6.40;5.80;;;27.10;32.30;;;;;;2261444;61;20353;-59
2021/09/08 02:33:53;0.00;0.00;0.62;0.00;0.00;0.62;5.97;5.27;;;27.00;32.20;;;;;;2261386;61;20722;-61
2021/09/08 02:36:38;0.00;0.00;0.62;0.00;0.00;0.62;5.60;5.10;;;27.00;32.20;;;;;;2260876;61;20401;-58
2021/09/08 02:39:22;0.00;0.00;0.62;0.00;0.00;0.62;6.10;5.50;;;27.00;32.30;;;;;;2261593;61;20597;-59
2021/09/08 02:42:07;0.00;0.00;0.62;0.00;0.00;0.62;5.20;4.70;;;27.00;32.20;;;;;;2261386;61;20390;-58
2021/09/08 02:44:52;0.00;0.00;0.62;0.00;0.00;0.62;5.40;4.90;;;27.00;32.20;;;;;;2261483;61;20685;-60
2021/09/08 02:47:38;0.00;0.00;0.62;0.00;0.00;0.62;5.07;4.57;;;27.00;32.20;;;;;;2261343;61;20378;-60
2021/09/08 02:50:22;0.00;0.00;0.62;0.00;0.00;0.62;5.90;5.00;;;27.00;32.30;;;;;;2260943;61;20366;-59
2021/09/08 02:53:07;0.00;0.00;0.62;0.00;0.00;0.62;6.57;5.97;;;27.00;32.30;;;;;;2261527;61;20378;-56
2021/09/08 02:55:52;0.00;0.00;0.62;0.00;0.00;0.62;5.40;4.90;;;27.00;32.30;;;;;;2261597;61;20408;-57
2021/09/08 02:58:36;0.00;0.00;0.62;0.00;0.00;0.62;6.23;5.63;;;27.00;32.30;;;;;;2261202;61;20401;-58
2021/09/08 03:01:21;0.00;0.00;0.62;0.00;0.00;0.62;5.80;5.30;;;27.00;32.30;;;;;;2261507;61;20381;-59
2021/09/08 03:04:07;0.00;0.00;0.62;0.00;0.00;0.62;6.10;5.50;;;27.00;32.30;;;;;;2261135;61;20378;-59
2021/09/08 03:06:52;0.00;0.00;0.62;0.00;0.00;0.62;5.63;5.13;;;27.00;32.30;;;;;;2261011;61;20428;-59
2021/09/08 03:09:37;0.00;0.00;0.62;0.00;0.00;0.62;6.20;5.07;;;27.00;32.30;;;;;;2261349;61;20726;-58
2021/09/08 03:12:22;0.00;0.00;0.62;0.00;0.00;0.62;7.13;5.20;;;27.00;32.20;;;;;;2260780;61;20362;-57
2021/09/08 03:15:08;0.00;0.00;0.62;0.00;0.00;0.62;5.33;4.50;;;27.00;32.30;;;;;;2261546;61;20834;-59
2021/09/08 03:17:53;0.00;0.00;0.62;0.00;0.00;0.62;5.80;4.70;;;27.00;32.20;;;;;;2261537;61;20393;-61
2021/09/08 03:20:39;0.00;0.00;0.62;0.00;0.00;0.62;5.77;5.17;;;27.00;32.20;;;;;;2260886;61;20393;-59
2021/09/08 03:23:26;0.00;0.00;0.62;0.00;0.00;0.62;6.73;5.93;;;27.00;32.20;;;;;;2261452;61;20425;-61
2021/09/08 03:26:14;0.00;0.00;0.62;0.00;0.00;0.62;6.67;5.60;;;27.00;32.20;;;;;;2261300;61;20390;-59
2021/09/08 03:29:00;0.00;0.00;0.62;0.00;0.00;0.62;5.97;4.80;;;27.00;32.20;;;;;;2261366;61;20425;-58
2021/09/08 03:31:44;0.00;0.00;0.62;0.00;0.00;0.62;5.40;4.90;;;27.00;32.20;;;;;;2261257;61;20389;-60
2021/09/08 03:34:29;0.00;0.00;0.62;0.00;0.00;0.62;5.67;5.07;;;27.00;32.20;;;;;;2260813;61;20362;-58
2021/09/08 03:37:15;0.00;0.00;0.62;0.00;0.00;0.62;5.37;4.87;;;27.00;32.20;;;;;;2261460;61;20358;-60
2021/09/08 03:40:00;0.00;0.00;0.62;0.00;0.00;0.62;6.13;5.53;;;27.00;32.20;;;;;;2261375;61;20370;-60
2021/09/08 03:42:47;0.00;0.00;0.62;0.00;0.00;0.62;6.27;5.50;;;27.00;32.20;;;;;;2260993;61;20781;-57
2021/09/08 03:45:32;0.00;0.00;0.62;0.00;0.00;0.62;5.70;5.10;;;26.90;32.20;;;;;;2261325;61;20452;-58
2021/09/08 03:48:16;0.00;0.00;0.62;0.00;0.00;0.62;6.17;5.50;;;27.00;32.30;;;;;;2261190;61;20432;-59
2021/09/08 03:51:02;0.00;0.00;0.62;0.00;0.00;0.62;5.23;4.73;;;26.90;32.20;;;;;;2261968;61;20354;-59
2021/09/08 03:53:48;0.00;0.00;0.62;0.00;0.00;0.62;8.17;4.87;;;26.90;32.10;;;;;;2261933;61;20376;-59
2021/09/08 03:56:34;0.00;0.00;0.62;0.00;0.00;0.62;5.30;4.80;;;26.90;32.20;;;;;;2261490;61;20836;-59
2021/09/08 03:59:21;0.00;0.00;0.62;0.00;0.00;0.62;5.73;4.77;;;26.90;32.10;;;;;;2262289;61;20349;-60
2021/09/08 04:02:06;0.00;0.00;0.62;0.00;0.00;0.62;6.60;6.00;;;26.90;32.10;;;;;;2261767;61;20393;-61
2021/09/08 04:04:51;0.00;0.00;0.62;0.00;0.00;0.62;5.70;5.10;;;26.90;32.10;;;;;;2261518;61;20357;-57
2021/09/08 04:07:36;0.00;0.00;0.62;0.00;0.00;0.62;5.03;4.53;;;26.90;32.10;;;;;;2261994;61;20842;-61
2021/09/08 04:10:25;0.00;0.00;0.62;0.00;0.00;0.62;8.57;6.87;;;26.90;32.10;;;;;;2261657;61;20389;-60
2021/09/08 04:13:11;0.00;0.00;0.62;0.00;0.00;0.62;6.83;5.97;;;26.90;32.10;;;;;;2261930;61;20385;-56
2021/09/08 04:15:55;0.00;0.00;0.62;0.00;0.00;0.62;5.97;5.07;;;26.90;32.10;;;;;;2261920;61;20393;-60
2021/09/08 04:18:40;0.00;0.00;0.62;0.00;0.00;0.62;5.70;5.03;;;26.80;32.10;;;;;;2261503;61;20365;-61
2021/09/08 04:21:25;0.00;0.00;0.62;0.00;0.00;0.62;5.67;5.13;;;26.80;32.10;;;;;;2262095;61;20357;-59
2021/09/08 04:24:09;0.00;0.00;0.62;0.00;0.00;0.62;5.50;4.80;;;26.80;32.20;;;;;;2261919;61;20377;-61
2021/09/08 04:26:55;0.00;0.00;0.62;0.00;0.00;0.62;5.60;5.10;;;26.80;32.20;;;;;;2261516;61;20742;-58
2021/09/08 04:29:40;0.00;0.00;0.62;0.00;0.00;0.62;6.70;6.10;;;26.80;32.20;;;;;;2261801;61;20493;-60
2021/09/08 04:32:25;0.00;0.00;0.62;0.00;0.00;0.62;6.23;5.60;;;26.80;32.20;;;;;;2261647;61;20454;-59
2021/09/08 04:35:09;0.00;0.00;0.62;0.00;0.00;0.62;6.10;5.50;;;26.80;32.30;;;;;;2261792;61;20394;-60
2021/09/08 04:37:54;0.00;0.00;0.62;0.00;0.00;0.62;7.00;6.33;;;26.70;32.10;;;;;;2261654;61;20605;-61
2021/09/08 04:40:38;0.00;0.00;0.62;0.00;0.00;0.62;6.37;5.67;;;26.70;32.20;;;;;;2261743;61;20362;-57
2021/09/08 04:43:24;0.00;0.00;0.62;0.00;0.00;0.62;6.87;6.20;;;26.70;32.10;;;;;;2262279;61;20377;-59
2021/09/08 04:46:09;0.00;0.00;0.62;0.00;0.00;0.62;6.30;5.10;;;26.70;32.20;;;;;;2261699;61;20370;-59
2021/09/08 04:48:54;0.00;0.00;0.62;0.00;0.00;0.62;6.07;5.30;;;26.70;32.20;;;;;;2261345;61;20603;-59
2021/09/08 04:51:38;0.00;0.00;0.62;0.00;0.00;0.62;7.90;5.90;;;26.70;32.20;;;;;;2261807;61;20619;-61
2021/09/08 04:54:23;0.00;0.00;0.62;0.00;0.00;0.62;6.10;5.50;;;26.70;32.20;;;;;;2262004;61;20377;-58
2021/09/08 04:57:07;0.00;0.00;0.62;0.00;0.00;0.62;6.33;5.33;;;26.70;32.20;;;;;;2261645;61;20738;-60
2021/09/08 04:59:53;0.00;0.00;0.62;0.00;0.00;0.62;5.37;4.87;;;26.70;32.30;;;;;;2261597;61;20753;-59
2021/09/08 05:02:38;0.00;0.00;0.62;0.00;0.00;0.62;7.27;5.57;;;26.70;32.30;;;;;;2261769;61;20406;-60
2021/09/08 05:05:22;0.00;0.00;0.62;0.00;0.00;0.62;6.53;5.90;;;26.70;32.20;;;;;;2261731;61;20579;-59
2021/09/08 05:08:06;0.00;0.00;0.62;0.00;0.00;0.62;6.73;6.03;;;26.60;32.20;;;;;;2261758;61;20433;-60
2021/09/08 05:10:51;0.00;0.00;0.62;0.00;0.00;0.62;5.50;5.00;;;26.60;32.20;;;;;;2261266;61;20350;-58
2021/09/08 05:13:36;0.00;0.00;0.62;0.00;0.00;0.62;5.57;5.03;;;26.60;32.30;;;;;;2261744;61;20439;-59
2021/09/08 05:16:21;0.00;0.00;0.62;0.00;0.00;0.62;5.53;5.00;;;26.60;32.30;;;;;;2261988;61;20358;-59
2021/09/08 05:19:06;0.00;0.00;0.62;0.00;0.00;0.62;6.37;5.77;;;26.60;32.30;;;;;;2261580;61;20457;-58
2021/09/08 05:21:50;0.00;0.00;0.62;0.00;0.00;0.62;7.53;6.03;;;26.60;32.30;;;;;;2261655;61;20358;-55
2021/09/08 05:24:35;0.00;0.00;0.62;0.00;0.00;0.62;6.13;5.53;;;26.60;32.30;;;;;;2261560;61;20380;-59
2021/09/08 05:27:20;0.00;0.00;0.62;0.00;0.00;0.62;6.80;5.20;;;26.60;32.30;;;;;;2261658;61;20354;-60
2021/09/08 05:30:07;0.00;0.00;0.62;0.00;0.00;0.62;6.90;6.27;;;26.50;32.30;;;;;;2261551;61;20370;-60
2021/09/08 05:32:52;0.00;0.00;0.62;0.00;0.00;0.62;7.00;5.90;;;26.50;32.30;;;;;;2261297;61;20413;-59
2021/09/08 05:35:37;0.00;0.00;0.62;0.00;0.00;0.62;6.37;5.77;;;26.50;32.30;;;;;;2261774;61;20477;-60
2021/09/08 05:38:22;0.00;0.00;0.62;0.00;0.00;0.62;7.23;6.50;;;26.50;32.30;;;;;;2261779;61;20393;-60
2021/09/08 05:41:09;0.00;0.00;0.62;0.00;0.00;0.62;5.80;5.20;;;26.50;32.40;;;;;;2261173;61;20370;-58
2021/09/08 05:43:53;0.00;0.00;0.62;0.00;0.00;0.62;6.73;6.03;;;26.50;32.40;;;;;;2261624;61;20377;-59
2021/09/08 05:46:38;0.00;0.00;0.62;0.00;0.00;0.62;6.37;5.50;;;26.50;32.40;;;;;;2261602;61;20427;-57
2021/09/08 05:49:24;0.00;0.00;0.62;0.00;0.00;0.62;7.00;6.30;;;26.50;32.50;;;;;;2261545;61;20382;-59
2021/09/08 05:52:08;0.00;0.00;0.62;0.00;0.00;0.62;7.03;5.20;;;26.50;32.40;;;;;;2261702;61;20417;-58
2021/09/08 05:54:53;0.00;0.00;0.62;0.00;0.00;0.62;7.10;6.40;;;26.50;32.40;;;;;;2261280;61;20434;-57
2021/09/08 05:57:39;0.00;0.00;0.62;0.00;0.00;0.62;6.57;5.87;;;26.50;32.50;;;;;;2261890;61;20353;-55
2021/09/08 06:00:23;0.00;0.00;0.62;0.00;0.00;0.62;6.60;5.80;;;26.50;32.60;;;;;;2261767;61;20401;-58
2021/09/08 06:03:07;0.00;0.00;0.62;0.00;0.00;0.62;5.53;5.00;;;26.40;32.50;;;;;;2261202;61;20379;-58
2021/09/08 06:05:53;0.00;0.00;0.62;0.00;0.00;0.62;6.40;5.50;;;26.50;32.60;;;;;;2261540;61;20394;-60
2021/09/08 06:08:38;0.00;0.00;0.62;0.00;0.00;0.62;6.07;5.20;;;26.50;32.60;;;;;;2261283;61;20509;-58
2021/09/08 06:11:23;0.00;0.00;0.62;0.00;0.00;0.62;5.67;5.10;;;26.50;32.60;;;;;;2261332;61;20381;-61
2021/09/08 06:14:10;0.00;0.00;0.62;0.00;0.00;0.62;6.60;6.00;;;26.50;32.60;;;;;;2261538;61;20382;-62
2021/09/08 06:16:54;0.00;0.00;0.62;0.00;0.00;0.62;6.50;5.90;;;26.50;32.60;;;;;;2261202;61;20472;-63
2021/09/08 06:19:39;0.00;0.00;0.62;0.00;0.00;0.62;9.40;5.63;;;26.50;32.60;;;;;;2261912;61;20358;-61
2021/09/08 06:22:25;0.00;0.00;0.62;0.00;0.00;0.62;5.90;5.37;;;26.50;32.70;;;;;;2261721;61;20429;-61
2021/09/08 06:25:10;0.00;0.00;0.62;0.00;0.00;0.62;9.80;5.47;;;26.50;32.70;;;;;;2260804;61;20575;-59
2021/09/08 06:27:55;0.00;0.00;0.62;0.00;0.00;0.62;6.20;5.60;;;26.50;32.70;;;;;;2261485;61;20462;-59
2021/09/08 06:30:40;0.00;0.00;0.62;0.00;0.00;0.62;6.43;5.83;;;26.50;32.70;;;;;;2492216;53;20355;-59
2021/09/08 06:33:24;0.00;0.00;0.62;0.00;0.00;0.62;7.37;6.10;;;26.40;32.70;;;;;;2257527;61;20462;-59
2021/09/08 06:36:09;0.00;0.00;0.62;0.00;0.00;0.62;9.60;6.87;;;26.40;32.70;;;;;;2257355;61;20401;-60
2021/09/08 06:38:55;0.00;0.00;0.62;0.00;0.00;0.62;7.50;5.70;;;26.40;32.70;;;;;;2285338;61;20731;-57
2021/09/08 06:41:41;0.00;0.00;0.62;0.00;0.00;0.62;8.83;6.00;;;26.40;32.70;;;;;;2261588;61;20354;-60
2021/09/08 06:44:26;0.00;0.00;0.62;0.00;0.00;0.62;7.87;6.23;;;26.30;32.70;;;;;;2261357;61;20666;-60
2021/09/08 06:47:16;0.00;0.00;0.62;0.00;0.00;0.62;7.17;6.40;;;26.30;32.80;;;;;;2261037;61;20366;-61
2021/09/08 06:50:01;0.00;0.00;0.62;0.00;0.00;0.62;7.30;6.03;;;26.30;32.80;;;;;;2258345;61;20357;-61
2021/09/08 06:52:45;0.00;0.00;0.62;0.00;0.00;0.62;6.30;5.70;;;26.30;32.90;;;;;;2261715;61;20428;-60
2021/09/08 06:55:31;0.00;0.00;0.62;0.00;0.00;0.62;7.33;5.80;;;26.30;32.90;;;;;;2261535;61;20741;-61
2021/09/08 06:58:16;0.00;0.00;0.62;0.00;0.00;0.62;7.37;5.90;;;26.30;32.90;;;;;;2260969;61;20425;-57
2021/09/08 07:01:01;0.00;0.00;0.62;0.00;0.00;0.62;7.73;5.90;;;26.30;33.00;;;;;;2261430;61;20353;-59
2021/09/08 07:03:46;0.00;0.00;0.62;0.00;0.00;0.62;7.90;6.43;;;26.30;33.10;;;;;;2261305;61;20738;-61
2021/09/08 07:06:30;0.00;0.00;0.62;0.00;0.00;0.62;7.50;6.20;;;26.30;33.10;;;;;;2261444;61;20372;-61
2021/09/08 07:09:17;0.00;0.00;0.62;0.00;0.00;0.62;6.57;5.70;;;26.30;33.10;;;;;;2260830;61;20575;-61
2021/09/08 07:12:05;0.00;0.00;0.62;0.00;0.00;0.62;9.20;6.97;;;26.30;33.00;;;;;;2261436;61;20425;-59
2021/09/08 07:14:49;0.00;0.00;0.62;0.00;0.00;0.62;6.87;6.20;;;26.30;33.00;;;;;;2261324;61;20385;-59
2021/09/08 07:17:34;0.00;0.00;0.62;0.00;0.00;0.62;7.40;6.40;;;26.30;33.00;;;;;;2261313;61;20354;-58
2021/09/08 07:20:20;0.00;0.00;0.62;0.00;0.00;0.62;6.90;6.17;;;26.30;32.90;;;;;;2439094;53;20366;-56
2021/09/08 07:23:04;0.00;0.00;0.62;0.00;0.00;0.62;9.50;6.30;;;26.30;32.90;;;;;;2261554;61;20413;-61
2021/09/08 07:25:49;0.00;0.00;0.62;0.00;0.00;0.62;7.93;7.10;;;26.30;32.90;;;;;;2261999;61;20392;-61
2021/09/08 07:28:35;0.00;0.00;0.62;0.00;0.00;0.62;7.73;6.77;;;26.30;33.00;;;;;;2262188;61;20461;-59
2021/09/08 07:31:20;0.00;0.00;0.62;0.00;0.00;0.62;8.77;6.40;;;26.30;33.00;;;;;;2261676;61;20473;-60
2021/09/08 07:34:05;0.00;0.00;0.62;0.00;0.00;0.62;9.40;5.70;;;26.30;33.00;;;;;;2262060;61;20407;-58
2021/09/08 07:36:50;0.00;0.00;0.62;0.00;0.00;0.62;7.50;5.93;;;26.30;33.00;;;;;;2262187;61;20366;-59
2021/09/08 07:39:35;0.00;0.00;0.62;0.00;0.00;0.62;6.43;5.83;;;26.30;33.20;;;;;;2261660;61;20365;-60
2021/09/08 07:42:20;0.00;0.00;0.62;0.00;0.00;0.62;9.20;7.07;;;26.30;33.30;;;;;;2262234;61;20366;-61
2021/09/08 07:45:08;0.00;0.00;0.62;0.00;0.00;0.62;9.93;7.27;;;26.30;33.30;;;;;;2261889;61;20392;-61
2021/09/08 07:47:52;0.00;0.00;0.62;0.00;0.00;0.62;6.83;6.13;;;26.30;33.40;;;;;;2262041;61;20366;-60
2021/09/08 07:50:37;0.00;0.00;0.62;0.00;0.00;0.62;9.30;6.50;;;26.30;33.30;;;;;;2261947;61;20377;-61
2021/09/08 07:53:22;0.00;0.00;0.62;0.00;0.00;0.62;6.93;6.23;;;26.40;33.40;;;;;;2261548;61;20384;-61
2021/09/08 07:56:06;0.00;0.00;0.62;0.00;0.00;0.62;10.50;6.33;;;26.40;33.30;;;;;;2262365;61;20456;-60
2021/09/08 07:58:51;0.00;0.00;0.62;0.00;0.00;0.62;11.57;7.53;;;26.40;33.30;;;;;;2261779;61;20408;-61
2021/09/08 08:01:37;0.00;0.00;0.62;0.00;0.00;0.62;7.50;6.70;;;26.50;33.40;;;;;;2261606;61;20373;-61
2021/09/08 08:04:22;0.00;0.00;0.62;0.00;0.00;0.62;8.10;6.63;;;26.50;33.40;;;;;;2261647;61;20708;-62
2021/09/08 08:07:06;0.00;0.00;0.62;0.00;0.00;0.62;7.77;7.00;;;26.50;33.40;;;;;;2261792;61;20634;-61
2021/09/08 08:09:51;0.00;0.00;0.62;0.00;0.00;0.62;8.80;6.50;;;26.50;33.30;;;;;;2261877;61;20600;-59
2021/09/08 08:12:36;0.00;0.00;0.62;0.00;0.00;0.62;8.13;7.03;;;26.50;33.30;;;;;;2261567;61;20397;-62
2021/09/08 08:15:21;0.00;0.00;0.62;0.00;0.00;0.62;7.93;6.83;;;26.60;33.30;;;;;;2261965;61;20414;-60
2021/09/08 08:18:07;0.00;0.00;0.62;0.00;0.00;0.62;6.87;6.17;;;26.60;33.30;;;;;;2262290;61;20387;-61
2021/09/08 08:20:52;0.00;0.00;0.62;0.00;0.00;0.62;7.33;6.50;;;26.60;33.30;;;;;;2261895;61;20599;-61
2021/09/08 08:23:36;0.00;0.00;0.62;0.00;0.00;0.62;7.97;6.27;;;26.60;33.30;;;;;;2261619;61;20594;-59
2021/09/08 08:26:22;0.00;0.00;0.62;0.00;0.00;0.62;7.07;6.37;;;26.70;33.30;;;;;;2262094;61;20626;-62
2021/09/08 08:29:07;0.00;0.00;0.62;0.00;0.00;0.62;6.20;5.60;;;26.70;33.30;;;;;;2261758;61;20669;-59
2021/09/08 08:31:52;0.00;0.00;0.62;0.00;0.00;0.62;6.03;5.43;;;26.70;33.40;;;;;;2261417;61;20638;-60
2021/09/08 08:34:37;0.00;0.00;0.62;0.00;0.00;0.62;6.13;5.63;;;26.70;33.40;;;;;;2261771;61;20406;-62
2021/09/08 08:37:22;0.00;0.00;0.62;0.00;0.00;0.62;7.70;6.60;;;26.80;33.40;;;;;;2261871;61;20381;-62
2021/09/08 08:40:10;0.00;0.00;0.62;0.00;0.00;0.62;5.87;5.27;;;26.80;33.40;;;;;;2262137;61;20350;-61
2021/09/08 08:42:55;0.00;0.00;0.62;0.00;0.00;0.62;6.13;5.53;;;26.80;33.40;;;;;;2261903;61;20454;-61
2021/09/08 08:45:40;0.00;0.00;0.62;0.00;0.00;0.62;6.17;5.57;;;26.80;33.40;;;;;;2261456;61;20354;-62
2021/09/08 08:48:25;0.00;0.00;0.62;0.00;0.00;0.62;8.07;5.67;;;26.80;33.40;;;;;;2261946;61;20381;-61
2021/09/08 08:51:11;0.00;0.00;0.62;0.00;0.00;0.62;6.40;5.73;;;26.90;33.50;;;;;;2261991;61;20714;-60
2021/09/08 08:53:55;0.00;0.00;0.62;0.00;0.00;0.62;7.30;6.10;;;26.90;33.50;;;;;;2261729;61;20382;-60
2021/09/08 08:56:40;0.00;0.00;0.62;0.00;0.00;0.62;6.33;5.33;;;27.00;33.60;;;;;;2261750;61;20358;-59
2021/09/08 08:59:25;0.00;0.00;0.62;0.00;0.00;0.62;7.27;6.13;;;27.00;33.60;;;;;;2261906;61;20361;-58
2021/09/08 09:02:18;0.00;0.00;0.62;0.00;0.00;0.62;6.67;5.97;;;27.00;33.50;;;;;;2261825;61;20397;-60
2021/09/08 09:05:06;0.00;0.00;0.62;0.00;0.00;0.62;5.80;5.30;;;27.00;33.50;;;;;;2261758;61;20602;-60
2021/09/08 09:07:52;0.00;0.00;0.62;0.00;0.00;0.62;5.93;5.33;;;27.10;33.50;;;;;;2261422;61;20397;-59
2021/09/08 09:10:39;0.00;0.00;0.62;0.00;0.00;0.62;5.40;4.90;;;27.10;33.50;;;;;;2261800;61;20420;-60
2021/09/08 09:13:31;0.00;0.00;0.62;0.00;0.00;0.62;5.57;4.80;;;27.10;33.50;;;;;;2262018;61;20374;-60
2021/09/08 09:16:16;0.00;0.00;0.62;0.00;0.00;0.62;8.00;6.67;;;27.20;33.50;;;;;;2261761;61;20365;-58
2021/09/08 09:19:01;0.00;0.00;0.62;0.00;0.00;0.62;7.03;6.33;;;27.20;33.50;;;;;;2261721;61;20370;-52
2021/09/08 09:21:45;0.00;0.00;0.62;0.00;0.00;0.62;7.70;6.50;;;27.20;33.40;;;;;;2261679;61;20588;-57
2021/09/08 09:24:39;0.00;0.00;0.62;0.00;0.00;0.62;6.87;6.17;;;27.30;33.40;;;;;;2261972;61;20417;-57
2021/09/08 09:27:26;0.00;0.00;0.62;0.00;0.00;0.62;8.23;7.23;;;27.30;33.30;;;;;;2261934;61;20726;-60
2021/09/08 09:30:15;0.00;0.00;0.62;0.00;0.00;0.62;8.67;7.30;;;27.30;33.20;;;;;;2261248;61;20384;-56
2021/09/08 09:33:00;0.00;0.00;0.62;0.00;0.00;0.62;7.33;6.73;;;27.30;33.20;;;;;;2261766;61;20374;-58
2021/09/08 09:35:46;0.00;0.00;0.62;0.00;0.00;0.62;12.00;8.77;;;27.40;33.90;;;;;;2261658;61;20394;-59
2021/09/08 09:38:38;0.00;0.00;0.62;0.00;0.00;0.62;8.23;7.37;;;27.40;33.10;;;;;;2261628;61;20369;-54
2021/09/08 09:41:31;0.00;0.00;0.62;0.00;0.00;0.62;7.77;6.67;;;27.40;33.10;;;;;;2261577;61;20695;-58
2021/09/08 09:44:16;0.00;0.00;0.62;0.00;0.00;0.62;7.77;6.97;;;27.40;33.00;;;;;;2261268;61;20389;-54
2021/09/08 09:47:02;0.00;0.00;0.62;0.00;0.00;0.62;8.53;7.63;;;27.50;33.10;;;;;;2261211;61;20358;-57
2021/09/08 09:49:53;0.00;0.00;0.62;0.00;0.00;0.62;8.03;6.50;;;27.50;33.00;;;;;;2261809;61;20389;-58
2021/09/08 09:52:38;0.00;0.00;0.62;0.00;0.00;0.62;9.07;6.67;;;27.50;33.00;;;;;;2261209;61;20425;-60
2021/09/08 09:55:24;0.00;0.00;0.62;0.00;0.00;0.62;11.13;7.20;;;27.50;32.90;;;;;;2261782;61;20365;-58
2021/09/08 09:58:10;0.00;0.00;0.62;0.00;0.00;0.62;8.00;6.57;;;27.60;32.90;;;;;;2261422;61;20583;-59
2021/09/08 10:00:55;0.00;0.00;0.62;0.00;0.00;0.62;8.13;7.20;;;27.60;32.80;;;;;;2261386;61;20365;-60
2021/09/08 10:03:39;0.00;0.00;0.62;0.00;0.00;0.62;7.23;6.53;;;27.60;32.70;;;;;;2261753;61;20415;-55
2021/09/08 10:06:24;0.00;0.00;0.62;0.00;0.00;0.62;8.60;7.33;;;27.60;32.60;;;;;;2261330;61;20610;-54
2021/09/08 10:09:14;0.00;0.00;0.62;0.00;0.00;0.62;9.33;6.63;;;27.60;32.60;;;;;;2261814;61;20401;-56
2021/09/08 10:12:01;0.00;0.00;0.62;0.00;0.00;0.62;6.53;5.57;;;27.70;32.60;;;;;;2261873;61;20362;-61
2021/09/08 10:14:48;0.00;0.00;0.62;0.00;0.00;0.62;8.23;6.30;;;27.70;32.50;;;;;;2261177;61;20592;-55
2021/09/08 10:17:41;0.00;0.00;0.62;0.00;0.00;0.62;8.50;7.70;;;27.70;32.40;;;;;;2261549;61;20366;-60
2021/09/08 10:20:26;0.00;0.00;0.62;0.00;0.00;0.62;7.20;5.80;;;27.70;32.30;;;;;;2261362;61;20354;-58
2021/09/08 10:23:15;0.00;0.00;0.62;0.00;0.00;0.62;7.17;5.90;;;27.70;32.10;;;;;;2261574;61;20440;-60
2021/09/08 10:26:09;0.00;0.00;0.62;0.00;0.00;0.62;7.37;6.60;;;27.70;31.90;;;;;;2261380;61;20357;-59
2021/09/08 10:28:56;0.00;0.00;0.62;0.00;0.00;0.62;7.17;6.20;;;27.70;31.90;;;;;;2261038;61;20390;-55
2021/09/08 10:31:50;0.00;0.00;0.62;0.00;0.00;0.62;7.10;6.40;;;27.70;31.90;;;;;;2261603;61;20434;-54
2021/09/08 10:34:36;0.00;0.00;0.62;0.00;0.00;0.62;6.30;5.70;;;27.70;31.90;;;;;;2261640;61;20758;-57
2021/09/08 10:37:23;0.00;0.00;0.62;0.00;0.00;0.62;7.17;5.60;;;27.70;31.90;;;;;;2261420;61;20397;-58
2021/09/08 10:40:10;0.00;0.00;0.62;0.00;0.00;0.62;8.13;6.30;;;27.80;31.90;;;;;;2261569;61;20361;-57
2021/09/08 10:42:57;0.00;0.00;0.62;0.00;0.00;0.62;6.60;5.80;;;27.70;31.90;;;;;;2261463;61;20454;-57
2021/09/08 10:45:50;0.00;0.00;0.62;0.00;0.00;0.62;7.27;6.57;;;27.80;31.90;;;;;;2261325;61;20361;-57
2021/09/08 10:48:40;0.00;0.00;0.62;0.00;0.00;0.62;10.20;6.27;;;27.80;31.90;;;;;;2261449;61;20381;-60
2021/09/08 10:51:44;0.00;0.00;0.62;0.00;0.00;0.62;7.87;6.00;;;27.80;31.90;;;;;;2260995;61;20366;-56
2021/09/08 10:54:28;0.00;0.00;0.62;0.00;0.00;0.62;9.30;5.50;;;27.80;31.90;;;;;;2261594;61;20373;-58